DBBB

Cadjehoun Airport

Cotonou, Benin
METAR DBBB 160600Z VRB03KT 3500 BR FEW011 26/25 Q1013 NOSIG
Observed Flight Rules
Dec-16 @ 06:00 UTC (an hour ago) Instrument Flight Rules
Wind Visibility Clouds Conditions
Variable at 3 knots 3,492 meters
  • Few at 1,100' AGL
  • Mist
Temperatures Readings
Current 26°C / 79°F
Dewpoint 25°C / 77°F
Humidity 94%
Altimeter 29.91" Hg
Pressure 1013 hPa
Elevation 9
METAR DBBB 160600Z VRB03KT 3500 BR FEW011 26/25 Q1013 NOSIG
Observed Flight Rules
Dec-16 @ 06:00 UTC
(an hour ago)
IFR
Wind Visibility
Variable at 3 knots 3,492 meters
Clouds
  • Few at 1,100' AGL
Conditions
  • Mist
Temperature Dewpoint
26°C / 79°F 25°C / 77°F
Humidity Altimeter Pressure
94% 29.91" Hg 1013 hPa